sensor_id;sensor_type;location;lat;lon;timestamp;P1;durP1;ratioP1;P2;durP2;ratioP2
28180;SDS011;15464;50.988;10.318;2022-07-11T00:00:55;0.40;;;0.40;;
28180;SDS011;15464;50.988;10.318;2022-07-11T00:03:22;0.60;;;0.60;;
28180;SDS011;15464;50.988;10.318;2022-07-11T00:05:49;0.30;;;0.30;;
28180;SDS011;15464;50.988;10.318;2022-07-11T00:08:15;0.40;;;0.40;;
28180;SDS011;15464;50.988;10.318;2022-07-11T00:10:42;1.15;;;0.40;;
28180;SDS011;15464;50.988;10.318;2022-07-11T00:13:09;0.45;;;0.40;;
28180;SDS011;15464;50.988;10.318;2022-07-11T00:15:36;0.30;;;0.30;;
28180;SDS011;15464;50.988;10.318;2022-07-11T00:18:03;0.30;;;0.30;;
28180;SDS011;15464;50.988;10.318;2022-07-11T00:20:29;0.30;;;0.30;;
28180;SDS011;15464;50.988;10.318;2022-07-11T00:22:56;0.30;;;0.30;;
28180;SDS011;15464;50.988;10.318;2022-07-11T00:25:23;0.30;;;0.30;;
28180;SDS011;15464;50.988;10.318;2022-07-11T00:27:50;0.20;;;0.20;;
28180;SDS011;15464;50.988;10.318;2022-07-11T00:30:17;0.47;;;0.40;;
28180;SDS011;15464;50.988;10.318;2022-07-11T00:32:44;0.50;;;0.40;;
28180;SDS011;15464;50.988;10.318;2022-07-11T00:35:11;0.30;;;0.30;;
28180;SDS011;15464;50.988;10.318;2022-07-11T00:37:38;0.65;;;0.40;;
28180;SDS011;15464;50.988;10.318;2022-07-11T00:40:05;0.30;;;0.30;;
28180;SDS011;15464;50.988;10.318;2022-07-11T00:42:32;1.95;;;0.30;;
28180;SDS011;15464;50.988;10.318;2022-07-11T00:44:59;1.48;;;0.52;;
28180;SDS011;15464;50.988;10.318;2022-07-11T00:47:26;0.90;;;0.35;;
28180;SDS011;15464;50.988;10.318;2022-07-11T00:49:53;0.43;;;0.30;;
28180;SDS011;15464;50.988;10.318;2022-07-11T00:52:21;0.30;;;0.30;;
28180;SDS011;15464;50.988;10.318;2022-07-11T00:54:49;0.60;;;0.40;;
28180;SDS011;15464;50.988;10.318;2022-07-11T00:57:16;1.05;;;0.35;;
28180;SDS011;15464;50.988;10.318;2022-07-11T00:59:43;0.50;;;0.40;;
28180;SDS011;15464;50.988;10.318;2022-07-11T01:02:10;0.75;;;0.40;;
28180;SDS011;15464;50.988;10.318;2022-07-11T01:04:37;0.40;;;0.32;;
28180;SDS011;15464;50.988;10.318;2022-07-11T01:07:04;0.82;;;0.38;;
28180;SDS011;15464;50.988;10.318;2022-07-11T01:09:31;0.30;;;0.30;;
28180;SDS011;15464;50.988;10.318;2022-07-11T01:11:58;0.93;;;0.50;;
28180;SDS011;15464;50.988;10.318;2022-07-11T01:14:25;0.60;;;0.40;;
28180;SDS011;15464;50.988;10.318;2022-07-11T01:16:51;0.77;;;0.47;;
28180;SDS011;15464;50.988;10.318;2022-07-11T01:19:18;1.10;;;0.50;;
28180;SDS011;15464;50.988;10.318;2022-07-11T01:21:48;1.42;;;0.60;;
28180;SDS011;15464;50.988;10.318;2022-07-11T01:24:16;0.68;;;0.50;;
28180;SDS011;15464;50.988;10.318;2022-07-11T01:26:48;0.80;;;0.30;;
28180;SDS011;15464;50.988;10.318;2022-07-11T01:29:17;0.40;;;0.40;;
28180;SDS011;15464;50.988;10.318;2022-07-11T01:31:44;0.40;;;0.40;;
28180;SDS011;15464;50.988;10.318;2022-07-11T01:34:11;0.40;;;0.40;;
28180;SDS011;15464;50.988;10.318;2022-07-11T01:36:38;0.40;;;0.40;;
28180;SDS011;15464;50.988;10.318;2022-07-11T01:39:05;0.82;;;0.40;;
28180;SDS011;15464;50.988;10.318;2022-07-11T01:41:32;1.15;;;0.57;;
28180;SDS011;15464;50.988;10.318;2022-07-11T01:43:59;0.30;;;0.30;;
28180;SDS011;15464;50.988;10.318;2022-07-11T01:46:26;1.50;;;0.40;;
28180;SDS011;15464;50.988;10.318;2022-07-11T01:48:53;0.70;;;0.50;;
28180;SDS011;15464;50.988;10.318;2022-07-11T01:51:19;0.50;;;0.40;;
28180;SDS011;15464;50.988;10.318;2022-07-11T01:53:48;0.47;;;0.30;;
28180;SDS011;15464;50.988;10.318;2022-07-11T01:56:15;1.90;;;0.40;;
28180;SDS011;15464;50.988;10.318;2022-07-11T02:01:11;0.40;;;0.40;;
28180;SDS011;15464;50.988;10.318;2022-07-11T02:03:38;1.40;;;0.60;;
28180;SDS011;15464;50.988;10.318;2022-07-11T02:06:05;0.73;;;0.45;;
28180;SDS011;15464;50.988;10.318;2022-07-11T02:08:32;0.57;;;0.40;;
28180;SDS011;15464;50.988;10.318;2022-07-11T02:11:00;0.52;;;0.50;;
28180;SDS011;15464;50.988;10.318;2022-07-11T02:13:26;0.70;;;0.50;;
28180;SDS011;15464;50.988;10.318;2022-07-11T02:15:53;0.77;;;0.60;;
28180;SDS011;15464;50.988;10.318;2022-07-11T02:18:21;0.50;;;0.50;;
28180;SDS011;15464;50.988;10.318;2022-07-11T02:20:47;0.80;;;0.45;;
28180;SDS011;15464;50.988;10.318;2022-07-11T02:23:18;0.55;;;0.40;;
28180;SDS011;15464;50.988;10.318;2022-07-11T02:25:45;0.88;;;0.40;;
28180;SDS011;15464;50.988;10.318;2022-07-11T02:28:13;0.45;;;0.40;;
28180;SDS011;15464;50.988;10.318;2022-07-11T02:30:41;0.90;;;0.50;;
28180;SDS011;15464;50.988;10.318;2022-07-11T02:33:09;0.50;;;0.40;;
28180;SDS011;15464;50.988;10.318;2022-07-11T02:35:42;1.23;;;0.55;;
28180;SDS011;15464;50.988;10.318;2022-07-11T02:38:09;0.90;;;0.60;;
28180;SDS011;15464;50.988;10.318;2022-07-11T02:40:36;0.43;;;0.43;;
28180;SDS011;15464;50.988;10.318;2022-07-11T02:43:03;0.98;;;0.50;;
28180;SDS011;15464;50.988;10.318;2022-07-11T02:45:30;0.57;;;0.40;;
28180;SDS011;15464;50.988;10.318;2022-07-11T02:47:59;0.82;;;0.40;;
28180;SDS011;15464;50.988;10.318;2022-07-11T02:50:26;0.63;;;0.40;;
28180;SDS011;15464;50.988;10.318;2022-07-11T02:52:53;1.70;;;0.40;;
28180;SDS011;15464;50.988;10.318;2022-07-11T02:55:20;2.88;;;0.70;;
28180;SDS011;15464;50.988;10.318;2022-07-11T02:57:47;1.25;;;0.52;;
28180;SDS011;15464;50.988;10.318;2022-07-11T03:00:14;0.80;;;0.47;;
28180;SDS011;15464;50.988;10.318;2022-07-11T03:02:42;0.88;;;0.50;;
28180;SDS011;15464;50.988;10.318;2022-07-11T03:05:10;0.63;;;0.50;;
28180;SDS011;15464;50.988;10.318;2022-07-11T03:07:39;2.65;;;0.50;;
28180;SDS011;15464;50.988;10.318;2022-07-11T03:10:06;1.48;;;0.70;;
28180;SDS011;15464;50.988;10.318;2022-07-11T03:12:33;0.82;;;0.60;;
28180;SDS011;15464;50.988;10.318;2022-07-11T03:15:00;1.17;;;0.65;;
28180;SDS011;15464;50.988;10.318;2022-07-11T03:17:27;0.95;;;0.50;;
28180;SDS011;15464;50.988;10.318;2022-07-11T03:19:54;2.30;;;0.50;;
28180;SDS011;15464;50.988;10.318;2022-07-11T03:22:20;1.45;;;0.50;;
28180;SDS011;15464;50.988;10.318;2022-07-11T03:24:49;0.77;;;0.57;;
28180;SDS011;15464;50.988;10.318;2022-07-11T03:27:17;0.40;;;0.40;;
28180;SDS011;15464;50.988;10.318;2022-07-11T03:29:43;1.45;;;0.55;;
28180;SDS011;15464;50.988;10.318;2022-07-11T03:32:10;0.95;;;0.40;;
28180;SDS011;15464;50.988;10.318;2022-07-11T03:34:37;1.20;;;0.70;;
28180;SDS011;15464;50.988;10.318;2022-07-11T03:37:04;1.27;;;0.60;;
28180;SDS011;15464;50.988;10.318;2022-07-11T03:39:31;0.50;;;0.50;;
28180;SDS011;15464;50.988;10.318;2022-07-11T03:41:58;0.60;;;0.60;;
28180;SDS011;15464;50.988;10.318;2022-07-11T03:44:25;1.00;;;0.65;;
28180;SDS011;15464;50.988;10.318;2022-07-11T03:46:52;0.57;;;0.50;;
28180;SDS011;15464;50.988;10.318;2022-07-11T03:49:19;1.00;;;0.80;;
28180;SDS011;15464;50.988;10.318;2022-07-11T03:51:45;0.95;;;0.80;;
28180;SDS011;15464;50.988;10.318;2022-07-11T03:54:12;0.70;;;0.60;;
28180;SDS011;15464;50.988;10.318;2022-07-11T03:56:39;0.50;;;0.50;;
28180;SDS011;15464;50.988;10.318;2022-07-11T03:59:07;1.25;;;0.90;;
28180;SDS011;15464;50.988;10.318;2022-07-11T04:01:35;1.92;;;0.60;;
28180;SDS011;15464;50.988;10.318;2022-07-11T04:04:02;1.42;;;0.93;;
28180;SDS011;15464;50.988;10.318;2022-07-11T04:06:29;0.65;;;0.65;;
28180;SDS011;15464;50.988;10.318;2022-07-11T04:08:56;0.75;;;0.70;;
28180;SDS011;15464;50.988;10.318;2022-07-11T04:11:23;1.45;;;0.80;;
28180;SDS011;15464;50.988;10.318;2022-07-11T04:13:49;1.17;;;0.75;;
28180;SDS011;15464;50.988;10.318;2022-07-11T04:16:16;1.83;;;0.93;;
28180;SDS011;15464;50.988;10.318;2022-07-11T04:18:43;1.58;;;0.70;;
28180;SDS011;15464;50.988;10.318;2022-07-11T04:21:10;2.15;;;0.70;;
28180;SDS011;15464;50.988;10.318;2022-07-11T04:23:37;1.23;;;0.77;;
28180;SDS011;15464;50.988;10.318;2022-07-11T04:26:05;2.15;;;1.02;;
28180;SDS011;15464;50.988;10.318;2022-07-11T04:28:31;1.77;;;0.90;;
28180;SDS011;15464;50.988;10.318;2022-07-11T04:30:59;1.08;;;0.70;;
28180;SDS011;15464;50.988;10.318;2022-07-11T04:33:25;1.85;;;1.10;;
28180;SDS011;15464;50.988;10.318;2022-07-11T04:35:53;1.98;;;1.00;;
28180;SDS011;15464;50.988;10.318;2022-07-11T04:38:20;1.05;;;0.82;;
28180;SDS011;15464;50.988;10.318;2022-07-11T04:40:50;2.22;;;0.80;;
28180;SDS011;15464;50.988;10.318;2022-07-11T04:43:17;3.10;;;0.80;;
28180;SDS011;15464;50.988;10.318;2022-07-11T04:45:44;2.17;;;1.05;;
28180;SDS011;15464;50.988;10.318;2022-07-11T04:48:10;4.13;;;1.13;;
28180;SDS011;15464;50.988;10.318;2022-07-11T04:50:37;4.72;;;1.10;;
28180;SDS011;15464;50.988;10.318;2022-07-11T04:53:04;1.02;;;0.93;;
28180;SDS011;15464;50.988;10.318;2022-07-11T04:55:31;1.23;;;0.90;;
28180;SDS011;15464;50.988;10.318;2022-07-11T04:57:58;2.38;;;0.90;;
28180;SDS011;15464;50.988;10.318;2022-07-11T05:00:25;2.95;;;1.05;;
28180;SDS011;15464;50.988;10.318;2022-07-11T05:02:52;3.38;;;0.90;;
28180;SDS011;15464;50.988;10.318;2022-07-11T05:05:19;1.75;;;0.85;;
28180;SDS011;15464;50.988;10.318;2022-07-11T05:07:46;0.80;;;0.80;;
28180;SDS011;15464;50.988;10.318;2022-07-11T05:10:13;2.65;;;1.10;;
28180;SDS011;15464;50.988;10.318;2022-07-11T05:12:40;2.90;;;0.93;;
28180;SDS011;15464;50.988;10.318;2022-07-11T05:15:07;2.78;;;0.70;;
28180;SDS011;15464;50.988;10.318;2022-07-11T05:17:34;1.20;;;0.85;;
28180;SDS011;15464;50.988;10.318;2022-07-11T05:20:02;1.23;;;0.93;;
28180;SDS011;15464;50.988;10.318;2022-07-11T05:22:29;3.47;;;1.33;;
28180;SDS011;15464;50.988;10.318;2022-07-11T05:24:56;1.85;;;1.15;;
28180;SDS011;15464;50.988;10.318;2022-07-11T05:27:22;2.05;;;0.95;;
28180;SDS011;15464;50.988;10.318;2022-07-11T05:29:49;1.30;;;1.05;;
28180;SDS011;15464;50.988;10.318;2022-07-11T05:32:16;2.80;;;1.30;;
28180;SDS011;15464;50.988;10.318;2022-07-11T05:34:43;2.50;;;1.30;;
28180;SDS011;15464;50.988;10.318;2022-07-11T05:37:09;5.88;;;1.60;;
28180;SDS011;15464;50.988;10.318;2022-07-11T05:39:36;2.42;;;1.40;;
28180;SDS011;15464;50.988;10.318;2022-07-11T05:42:03;2.15;;;1.10;;
28180;SDS011;15464;50.988;10.318;2022-07-11T05:44:30;3.08;;;1.30;;
28180;SDS011;15464;50.988;10.318;2022-07-11T05:47:03;2.28;;;1.00;;
28180;SDS011;15464;50.988;10.318;2022-07-11T05:49:30;1.75;;;0.93;;
28180;SDS011;15464;50.988;10.318;2022-07-11T05:51:57;2.10;;;1.10;;
28180;SDS011;15464;50.988;10.318;2022-07-11T05:54:24;1.25;;;1.00;;
28180;SDS011;15464;50.988;10.318;2022-07-11T05:56:52;1.83;;;0.90;;
28180;SDS011;15464;50.988;10.318;2022-07-11T05:59:19;4.50;;;1.30;;
28180;SDS011;15464;50.988;10.318;2022-07-11T06:01:46;3.20;;;1.27;;
28180;SDS011;15464;50.988;10.318;2022-07-11T06:04:14;2.15;;;1.08;;
28180;SDS011;15464;50.988;10.318;2022-07-11T06:06:40;2.78;;;0.93;;
28180;SDS011;15464;50.988;10.318;2022-07-11T06:09:07;2.75;;;1.23;;
28180;SDS011;15464;50.988;10.318;2022-07-11T06:11:34;1.13;;;1.00;;
28180;SDS011;15464;50.988;10.318;2022-07-11T06:14:01;1.95;;;1.08;;
28180;SDS011;15464;50.988;10.318;2022-07-11T06:16:28;6.35;;;1.50;;
28180;SDS011;15464;50.988;10.318;2022-07-11T06:18:55;3.25;;;1.15;;
28180;SDS011;15464;50.988;10.318;2022-07-11T06:21:22;4.57;;;1.50;;
28180;SDS011;15464;50.988;10.318;2022-07-11T06:23:49;3.90;;;0.98;;
28180;SDS011;15464;50.988;10.318;2022-07-11T06:26:16;5.00;;;1.25;;
28180;SDS011;15464;50.988;10.318;2022-07-11T06:28:43;4.07;;;1.45;;
28180;SDS011;15464;50.988;10.318;2022-07-11T06:31:10;2.53;;;1.30;;
28180;SDS011;15464;50.988;10.318;2022-07-11T06:33:37;3.97;;;1.42;;
28180;SDS011;15464;50.988;10.318;2022-07-11T06:36:05;2.42;;;1.25;;
28180;SDS011;15464;50.988;10.318;2022-07-11T06:38:33;4.60;;;1.30;;
28180;SDS011;15464;50.988;10.318;2022-07-11T06:41:00;4.30;;;1.35;;
28180;SDS011;15464;50.988;10.318;2022-07-11T06:43:30;6.50;;;1.65;;
28180;SDS011;15464;50.988;10.318;2022-07-11T06:45:57;3.55;;;1.20;;
28180;SDS011;15464;50.988;10.318;2022-07-11T06:48:24;2.88;;;1.50;;
28180;SDS011;15464;50.988;10.318;2022-07-11T06:50:52;3.10;;;1.30;;
28180;SDS011;15464;50.988;10.318;2022-07-11T06:53:19;7.93;;;4.68;;
28180;SDS011;15464;50.988;10.318;2022-07-11T06:55:46;3.25;;;1.50;;
28180;SDS011;15464;50.988;10.318;2022-07-11T06:58:13;2.55;;;1.20;;
28180;SDS011;15464;50.988;10.318;2022-07-11T07:01:02;4.82;;;1.33;;
28180;SDS011;15464;50.988;10.318;2022-07-11T07:03:32;1.95;;;1.25;;
28180;SDS011;15464;50.988;10.318;2022-07-11T07:06:00;2.22;;;1.15;;
28180;SDS011;15464;50.988;10.318;2022-07-11T07:08:28;3.28;;;1.30;;
28180;SDS011;15464;50.988;10.318;2022-07-11T07:10:55;3.00;;;1.20;;
28180;SDS011;15464;50.988;10.318;2022-07-11T07:13:22;3.83;;;1.02;;
28180;SDS011;15464;50.988;10.318;2022-07-11T07:15:55;2.20;;;0.93;;
28180;SDS011;15464;50.988;10.318;2022-07-11T07:18:26;4.90;;;1.10;;
28180;SDS011;15464;50.988;10.318;2022-07-11T07:20:53;1.75;;;1.20;;
28180;SDS011;15464;50.988;10.318;2022-07-11T07:23:20;1.85;;;1.17;;
28180;SDS011;15464;50.988;10.318;2022-07-11T07:25:47;2.67;;;1.20;;
28180;SDS011;15464;50.988;10.318;2022-07-11T07:28:14;3.25;;;1.17;;
28180;SDS011;15464;50.988;10.318;2022-07-11T07:30:41;5.15;;;1.50;;
28180;SDS011;15464;50.988;10.318;2022-07-11T07:33:10;1.75;;;1.25;;
28180;SDS011;15464;50.988;10.318;2022-07-11T07:35:38;2.05;;;1.10;;
28180;SDS011;15464;50.988;10.318;2022-07-11T07:38:05;3.00;;;1.27;;
28180;SDS011;15464;50.988;10.318;2022-07-11T07:40:31;2.05;;;1.00;;
28180;SDS011;15464;50.988;10.318;2022-07-11T07:42:58;2.75;;;1.13;;
28180;SDS011;15464;50.988;10.318;2022-07-11T07:45:25;1.58;;;0.90;;
28180;SDS011;15464;50.988;10.318;2022-07-11T07:47:52;2.95;;;1.20;;
28180;SDS011;15464;50.988;10.318;2022-07-11T07:50:18;3.75;;;1.10;;
28180;SDS011;15464;50.988;10.318;2022-07-11T07:52:45;4.43;;;1.10;;
28180;SDS011;15464;50.988;10.318;2022-07-11T07:55:12;3.17;;;1.00;;
28180;SDS011;15464;50.988;10.318;2022-07-11T07:57:39;2.90;;;1.10;;
28180;SDS011;15464;50.988;10.318;2022-07-11T08:00:06;2.45;;;1.00;;
28180;SDS011;15464;50.988;10.318;2022-07-11T08:03:02;3.80;;;1.02;;
28180;SDS011;15464;50.988;10.318;2022-07-11T08:05:30;2.63;;;1.00;;
28180;SDS011;15464;50.988;10.318;2022-07-11T08:07:56;1.58;;;1.20;;
28180;SDS011;15464;50.988;10.318;2022-07-11T08:10:23;2.17;;;0.90;;
28180;SDS011;15464;50.988;10.318;2022-07-11T08:12:50;2.28;;;0.80;;
28180;SDS011;15464;50.988;10.318;2022-07-11T08:15:17;3.15;;;0.98;;
28180;SDS011;15464;50.988;10.318;2022-07-11T08:17:43;2.55;;;0.98;;
28180;SDS011;15464;50.988;10.318;2022-07-11T08:20:10;1.45;;;0.90;;
28180;SDS011;15464;50.988;10.318;2022-07-11T08:22:37;4.53;;;1.00;;
28180;SDS011;15464;50.988;10.318;2022-07-11T08:25:04;1.75;;;1.00;;
28180;SDS011;15464;50.988;10.318;2022-07-11T08:27:31;2.22;;;1.17;;
28180;SDS011;15464;50.988;10.318;2022-07-11T08:30:06;2.38;;;1.10;;
28180;SDS011;15464;50.988;10.318;2022-07-11T08:32:37;2.10;;;1.05;;
28180;SDS011;15464;50.988;10.318;2022-07-11T08:35:06;1.40;;;1.08;;
28180;SDS011;15464;50.988;10.318;2022-07-11T08:37:33;3.35;;;1.10;;
28180;SDS011;15464;50.988;10.318;2022-07-11T08:40:00;4.25;;;1.30;;
28180;SDS011;15464;50.988;10.318;2022-07-11T08:42:28;3.40;;;0.93;;
28180;SDS011;15464;50.988;10.318;2022-07-11T08:44:58;2.83;;;0.75;;
28180;SDS011;15464;50.988;10.318;2022-07-11T08:47:25;1.35;;;1.00;;
28180;SDS011;15464;50.988;10.318;2022-07-11T08:49:52;1.42;;;1.00;;
28180;SDS011;15464;50.988;10.318;2022-07-11T08:52:19;1.52;;;1.10;;
28180;SDS011;15464;50.988;10.318;2022-07-11T08:54:46;1.90;;;1.20;;
28180;SDS011;15464;50.988;10.318;2022-07-11T08:57:13;2.55;;;1.23;;
28180;SDS011;15464;50.988;10.318;2022-07-11T08:59:40;1.50;;;1.00;;
28180;SDS011;15464;50.988;10.318;2022-07-11T09:02:08;1.15;;;1.00;;
28180;SDS011;15464;50.988;10.318;2022-07-11T09:04:36;2.72;;;1.30;;
28180;SDS011;15464;50.988;10.318;2022-07-11T09:07:04;2.70;;;1.15;;
28180;SDS011;15464;50.988;10.318;2022-07-11T09:09:31;1.48;;;1.10;;
28180;SDS011;15464;50.988;10.318;2022-07-11T09:11:58;2.15;;;1.30;;
28180;SDS011;15464;50.988;10.318;2022-07-11T09:19:28;1.83;;;0.98;;
28180;SDS011;15464;50.988;10.318;2022-07-11T09:24:53;0.90;;;0.80;;
28180;SDS011;15464;50.988;10.318;2022-07-11T09:27:39;1.20;;;0.95;;
28180;SDS011;15464;50.988;10.318;2022-07-11T09:30:15;2.55;;;1.02;;
28180;SDS011;15464;50.988;10.318;2022-07-11T09:32:53;1.63;;;1.08;;
28180;SDS011;15464;50.988;10.318;2022-07-11T09:35:34;1.58;;;1.02;;
28180;SDS011;15464;50.988;10.318;2022-07-11T09:38:07;1.58;;;1.00;;
28180;SDS011;15464;50.988;10.318;2022-07-11T09:40:35;3.33;;;1.38;;
28180;SDS011;15464;50.988;10.318;2022-07-11T09:43:03;1.77;;;1.10;;
28180;SDS011;15464;50.988;10.318;2022-07-11T09:45:31;1.38;;;0.85;;
28180;SDS011;15464;50.988;10.318;2022-07-11T09:48:00;2.17;;;0.80;;
28180;SDS011;15464;50.988;10.318;2022-07-11T09:50:37;1.65;;;1.00;;
28180;SDS011;15464;50.988;10.318;2022-07-11T09:53:09;3.13;;;1.97;;
28180;SDS011;15464;50.988;10.318;2022-07-11T09:55:42;2.03;;;1.10;;
28180;SDS011;15464;50.988;10.318;2022-07-11T09:58:18;1.63;;;1.23;;
28180;SDS011;15464;50.988;10.318;2022-07-11T10:00:48;1.58;;;1.02;;
28180;SDS011;15464;50.988;10.318;2022-07-11T10:03:17;1.93;;;0.80;;
28180;SDS011;15464;50.988;10.318;2022-07-11T10:06:08;0.95;;;0.77;;
28180;SDS011;15464;50.988;10.318;2022-07-11T10:08:35;2.10;;;0.85;;
28180;SDS011;15464;50.988;10.318;2022-07-11T10:11:02;1.02;;;0.70;;
28180;SDS011;15464;50.988;10.318;2022-07-11T10:13:29;1.80;;;0.77;;
28180;SDS011;15464;50.988;10.318;2022-07-11T10:15:56;1.20;;;0.80;;
28180;SDS011;15464;50.988;10.318;2022-07-11T10:18:39;2.03;;;0.95;;
28180;SDS011;15464;50.988;10.318;2022-07-11T10:21:17;1.52;;;0.80;;
28180;SDS011;15464;50.988;10.318;2022-07-11T10:23:58;1.63;;;0.60;;
28180;SDS011;15464;50.988;10.318;2022-07-11T10:29:35;0.63;;;0.63;;
28180;SDS011;15464;50.988;10.318;2022-07-11T10:32:07;1.02;;;0.80;;
28180;SDS011;15464;50.988;10.318;2022-07-11T10:34:39;2.25;;;0.88;;
28180;SDS011;15464;50.988;10.318;2022-07-11T10:37:07;1.48;;;0.90;;
28180;SDS011;15464;50.988;10.318;2022-07-11T10:39:35;0.95;;;0.57;;
28180;SDS011;15464;50.988;10.318;2022-07-11T10:42:03;1.13;;;0.80;;
28180;SDS011;15464;50.988;10.318;2022-07-11T10:44:48;0.75;;;0.70;;
28180;SDS011;15464;50.988;10.318;2022-07-11T10:50:02;2.90;;;0.65;;
28180;SDS011;15464;50.988;10.318;2022-07-11T10:52:37;0.70;;;0.47;;
28180;SDS011;15464;50.988;10.318;2022-07-11T10:57:44;0.50;;;0.45;;
28180;SDS011;15464;50.988;10.318;2022-07-11T11:00:20;1.15;;;0.60;;
28180;SDS011;15464;50.988;10.318;2022-07-11T11:16:42;0.68;;;0.65;;
28180;SDS011;15464;50.988;10.318;2022-07-11T11:22:14;1.23;;;0.43;;
28180;SDS011;15464;50.988;10.318;2022-07-11T11:24:42;4.90;;;0.80;;
28180;SDS011;15464;50.988;10.318;2022-07-11T11:27:30;2.00;;;0.60;;
28180;SDS011;15464;50.988;10.318;2022-07-11T11:29:57;1.60;;;0.55;;
28180;SDS011;15464;50.988;10.318;2022-07-11T11:32:31;2.78;;;0.70;;
28180;SDS011;15464;50.988;10.318;2022-07-11T11:34:58;1.15;;;0.60;;
28180;SDS011;15464;50.988;10.318;2022-07-11T11:37:25;2.80;;;0.80;;
28180;SDS011;15464;50.988;10.318;2022-07-11T11:39:56;1.35;;;0.60;;
28180;SDS011;15464;50.988;10.318;2022-07-11T11:42:28;1.20;;;0.77;;
28180;SDS011;15464;50.988;10.318;2022-07-11T11:45:01;1.85;;;0.60;;
28180;SDS011;15464;50.988;10.318;2022-07-11T11:47:30;3.03;;;0.70;;
28180;SDS011;15464;50.988;10.318;2022-07-11T11:49:57;1.67;;;0.55;;
28180;SDS011;15464;50.988;10.318;2022-07-11T11:52:24;1.02;;;0.55;;
28180;SDS011;15464;50.988;10.318;2022-07-11T11:54:54;1.15;;;0.77;;
28180;SDS011;15464;50.988;10.318;2022-07-11T11:57:23;0.40;;;0.40;;
28180;SDS011;15464;50.988;10.318;2022-07-11T11:59:52;2.25;;;0.50;;
28180;SDS011;15464;50.988;10.318;2022-07-11T12:02:23;0.75;;;0.30;;
28180;SDS011;15464;50.988;10.318;2022-07-11T12:04:52;0.60;;;0.40;;
28180;SDS011;15464;50.988;10.318;2022-07-11T12:07:22;0.50;;;0.40;;
28180;SDS011;15464;50.988;10.318;2022-07-11T12:09:51;0.50;;;0.40;;
28180;SDS011;15464;50.988;10.318;2022-07-11T12:12:25;0.40;;;0.30;;
28180;SDS011;15464;50.988;10.318;2022-07-11T12:15:26;0.40;;;0.32;;
28180;SDS011;15464;50.988;10.318;2022-07-11T12:17:59;1.65;;;0.35;;
28180;SDS011;15464;50.988;10.318;2022-07-11T12:23:08;0.75;;;0.40;;
28180;SDS011;15464;50.988;10.318;2022-07-11T12:25:40;1.95;;;0.75;;
28180;SDS011;15464;50.988;10.318;2022-07-11T12:28:08;0.75;;;0.30;;
28180;SDS011;15464;50.988;10.318;2022-07-11T12:30:36;0.40;;;0.40;;
28180;SDS011;15464;50.988;10.318;2022-07-11T12:35:34;0.73;;;0.60;;
28180;SDS011;15464;50.988;10.318;2022-07-11T12:38:02;0.75;;;0.57;;
28180;SDS011;15464;50.988;10.318;2022-07-11T12:40:29;1.55;;;0.50;;
28180;SDS011;15464;50.988;10.318;2022-07-11T12:42:55;1.35;;;0.60;;
28180;SDS011;15464;50.988;10.318;2022-07-11T12:45:22;0.65;;;0.50;;
28180;SDS011;15464;50.988;10.318;2022-07-11T12:47:49;0.65;;;0.38;;
28180;SDS011;15464;50.988;10.318;2022-07-11T12:50:24;0.50;;;0.30;;
28180;SDS011;15464;50.988;10.318;2022-07-11T12:52:54;0.90;;;0.50;;
28180;SDS011;15464;50.988;10.318;2022-07-11T12:55:31;2.13;;;0.43;;
28180;SDS011;15464;50.988;10.318;2022-07-11T13:00:27;0.68;;;0.52;;
28180;SDS011;15464;50.988;10.318;2022-07-11T13:02:54;0.60;;;0.50;;
28180;SDS011;15464;50.988;10.318;2022-07-11T13:05:21;0.50;;;0.50;;
28180;SDS011;15464;50.988;10.318;2022-07-11T13:07:47;2.15;;;0.40;;
28180;SDS011;15464;50.988;10.318;2022-07-11T13:10:33;0.65;;;0.45;;
28180;SDS011;15464;50.988;10.318;2022-07-11T13:13:31;0.70;;;0.68;;
28180;SDS011;15464;50.988;10.318;2022-07-11T13:15:58;0.90;;;0.60;;
28180;SDS011;15464;50.988;10.318;2022-07-11T13:18:25;0.90;;;0.50;;
28180;SDS011;15464;50.988;10.318;2022-07-11T13:20:52;1.02;;;0.68;;
28180;SDS011;15464;50.988;10.318;2022-07-11T13:23:21;0.30;;;0.30;;
28180;SDS011;15464;50.988;10.318;2022-07-11T13:25:48;0.65;;;0.38;;
28180;SDS011;15464;50.988;10.318;2022-07-11T13:28:15;0.30;;;0.30;;
28180;SDS011;15464;50.988;10.318;2022-07-11T13:30:42;0.40;;;0.40;;
28180;SDS011;15464;50.988;10.318;2022-07-11T13:33:28;0.73;;;0.45;;
28180;SDS011;15464;50.988;10.318;2022-07-11T13:35:55;0.65;;;0.40;;
28180;SDS011;15464;50.988;10.318;2022-07-11T13:38:22;0.68;;;0.57;;
28180;SDS011;15464;50.988;10.318;2022-07-11T13:40:49;1.27;;;0.20;;
28180;SDS011;15464;50.988;10.318;2022-07-11T13:43:16;0.30;;;0.30;;
28180;SDS011;15464;50.988;10.318;2022-07-11T13:45:43;0.70;;;0.38;;
28180;SDS011;15464;50.988;10.318;2022-07-11T13:48:11;0.80;;;0.30;;
28180;SDS011;15464;50.988;10.318;2022-07-11T13:50:38;1.45;;;0.60;;
28180;SDS011;15464;50.988;10.318;2022-07-11T13:53:05;1.10;;;0.50;;
28180;SDS011;15464;50.988;10.318;2022-07-11T13:55:32;1.00;;;0.50;;
28180;SDS011;15464;50.988;10.318;2022-07-11T13:57:59;1.27;;;0.40;;
28180;SDS011;15464;50.988;10.318;2022-07-11T14:00:27;0.77;;;0.30;;
28180;SDS011;15464;50.988;10.318;2022-07-11T14:02:56;1.02;;;0.60;;
28180;SDS011;15464;50.988;10.318;2022-07-11T14:05:23;1.83;;;0.50;;
28180;SDS011;15464;50.988;10.318;2022-07-11T14:07:50;0.30;;;0.30;;
28180;SDS011;15464;50.988;10.318;2022-07-11T14:10:18;0.53;;;0.43;;
28180;SDS011;15464;50.988;10.318;2022-07-11T14:12:49;0.47;;;0.45;;
28180;SDS011;15464;50.988;10.318;2022-07-11T14:15:16;0.57;;;0.50;;
28180;SDS011;15464;50.988;10.318;2022-07-11T14:17:43;0.40;;;0.40;;
28180;SDS011;15464;50.988;10.318;2022-07-11T14:20:09;0.30;;;0.30;;
28180;SDS011;15464;50.988;10.318;2022-07-11T14:22:36;0.38;;;0.38;;
28180;SDS011;15464;50.988;10.318;2022-07-11T14:25:03;1.40;;;0.50;;
28180;SDS011;15464;50.988;10.318;2022-07-11T14:27:31;0.85;;;0.47;;
28180;SDS011;15464;50.988;10.318;2022-07-11T14:29:58;0.98;;;0.80;;
28180;SDS011;15464;50.988;10.318;2022-07-11T14:32:25;0.85;;;0.55;;
28180;SDS011;15464;50.988;10.318;2022-07-11T14:34:52;0.57;;;0.50;;
28180;SDS011;15464;50.988;10.318;2022-07-11T14:37:18;1.00;;;0.50;;
28180;SDS011;15464;50.988;10.318;2022-07-11T14:39:45;0.63;;;0.57;;
28180;SDS011;15464;50.988;10.318;2022-07-11T14:42:12;0.50;;;0.50;;
28180;SDS011;15464;50.988;10.318;2022-07-11T14:44:59;1.23;;;0.68;;
28180;SDS011;15464;50.988;10.318;2022-07-11T14:47:25;0.93;;;0.75;;
28180;SDS011;15464;50.988;10.318;2022-07-11T14:49:53;2.33;;;0.90;;
28180;SDS011;15464;50.988;10.318;2022-07-11T14:52:19;1.00;;;0.90;;
28180;SDS011;15464;50.988;10.318;2022-07-11T14:54:46;2.63;;;0.73;;
28180;SDS011;15464;50.988;10.318;2022-07-11T14:57:13;1.27;;;0.70;;
28180;SDS011;15464;50.988;10.318;2022-07-11T14:59:40;1.20;;;0.60;;
28180;SDS011;15464;50.988;10.318;2022-07-11T15:02:06;3.42;;;0.80;;
28180;SDS011;15464;50.988;10.318;2022-07-11T15:04:33;0.70;;;0.60;;
28180;SDS011;15464;50.988;10.318;2022-07-11T15:07:00;2.08;;;1.20;;
28180;SDS011;15464;50.988;10.318;2022-07-11T15:09:45;0.63;;;0.50;;
28180;SDS011;15464;50.988;10.318;2022-07-11T15:12:30;1.65;;;0.75;;
28180;SDS011;15464;50.988;10.318;2022-07-11T15:14:57;0.85;;;0.70;;
28180;SDS011;15464;50.988;10.318;2022-07-11T15:17:24;0.75;;;0.55;;
28180;SDS011;15464;50.988;10.318;2022-07-11T15:19:51;0.98;;;0.50;;
28180;SDS011;15464;50.988;10.318;2022-07-11T15:22:18;1.02;;;0.52;;
28180;SDS011;15464;50.988;10.318;2022-07-11T15:24:45;1.02;;;0.60;;